sensor_id;sensor_type;location;lat;lon;timestamp;P1;durP1;ratioP1;P2;durP2;ratioP2
44646;SDS011;56315;-33.902;151.160;2022-08-23T00:02:10;4.68;;;1.52;;
44646;SDS011;56315;-33.902;151.160;2022-08-23T00:04:39;6.55;;;1.40;;
44646;SDS011;56315;-33.902;151.160;2022-08-23T00:07:10;2.28;;;1.25;;
44646;SDS011;56315;-33.902;151.160;2022-08-23T00:09:39;3.25;;;1.30;;
44646;SDS011;56315;-33.902;151.160;2022-08-23T00:12:17;3.53;;;1.38;;
44646;SDS011;56315;-33.902;151.160;2022-08-23T00:14:48;2.45;;;1.25;;
44646;SDS011;56315;-33.902;151.160;2022-08-23T00:17:17;1.80;;;0.90;;
44646;SDS011;56315;-33.902;151.160;2022-08-23T00:19:45;3.97;;;1.15;;
44646;SDS011;56315;-33.902;151.160;2022-08-23T00:22:13;4.30;;;1.35;;
44646;SDS011;56315;-33.902;151.160;2022-08-23T00:24:41;3.15;;;1.08;;
44646;SDS011;56315;-33.902;151.160;2022-08-23T00:27:12;4.82;;;1.10;;
44646;SDS011;56315;-33.902;151.160;2022-08-23T00:29:46;1.88;;;0.90;;
44646;SDS011;56315;-33.902;151.160;2022-08-23T00:32:25;2.17;;;0.90;;
44646;SDS011;56315;-33.902;151.160;2022-08-23T00:34:55;3.92;;;1.10;;
44646;SDS011;56315;-33.902;151.160;2022-08-23T00:37:24;3.97;;;0.82;;
44646;SDS011;56315;-33.902;151.160;2022-08-23T00:39:52;4.60;;;0.80;;
44646;SDS011;56315;-33.902;151.160;2022-08-23T00:45:37;2.05;;;0.60;;
44646;SDS011;56315;-33.902;151.160;2022-08-23T00:48:46;4.00;;;1.33;;
44646;SDS011;56315;-33.902;151.160;2022-08-23T00:54:12;4.43;;;1.15;;
44646;SDS011;56315;-33.902;151.160;2022-08-23T00:56:41;3.45;;;1.15;;
44646;SDS011;56315;-33.902;151.160;2022-08-23T00:59:09;4.55;;;1.20;;
44646;SDS011;56315;-33.902;151.160;2022-08-23T01:01:37;2.63;;;1.17;;
44646;SDS011;56315;-33.902;151.160;2022-08-23T01:04:04;2.42;;;0.90;;
44646;SDS011;56315;-33.902;151.160;2022-08-23T01:06:52;2.40;;;0.88;;
44646;SDS011;56315;-33.902;151.160;2022-08-23T01:09:33;2.53;;;0.90;;
44646;SDS011;56315;-33.902;151.160;2022-08-23T01:12:08;1.98;;;1.17;;
44646;SDS011;56315;-33.902;151.160;2022-08-23T01:14:57;2.20;;;0.90;;
44646;SDS011;56315;-33.902;151.160;2022-08-23T01:17:45;1.80;;;0.90;;
44646;SDS011;56315;-33.902;151.160;2022-08-23T01:23:35;2.53;;;0.88;;
44646;SDS011;56315;-33.902;151.160;2022-08-23T01:26:07;1.42;;;0.80;;
44646;SDS011;56315;-33.902;151.160;2022-08-23T01:28:36;1.92;;;0.80;;
44646;SDS011;56315;-33.902;151.160;2022-08-23T01:31:05;1.48;;;0.88;;
44646;SDS011;56315;-33.902;151.160;2022-08-23T01:33:34;2.53;;;1.00;;
44646;SDS011;56315;-33.902;151.160;2022-08-23T01:36:03;3.05;;;0.80;;
44646;SDS011;56315;-33.902;151.160;2022-08-23T01:38:32;1.95;;;0.82;;
44646;SDS011;56315;-33.902;151.160;2022-08-23T01:40:59;2.55;;;0.90;;
44646;SDS011;56315;-33.902;151.160;2022-08-23T01:43:27;1.63;;;0.73;;
44646;SDS011;56315;-33.902;151.160;2022-08-23T01:45:54;1.55;;;0.70;;
44646;SDS011;56315;-33.902;151.160;2022-08-23T01:48:21;1.92;;;0.77;;
44646;SDS011;56315;-33.902;151.160;2022-08-23T01:50:49;2.88;;;0.80;;
44646;SDS011;56315;-33.902;151.160;2022-08-23T01:53:17;4.05;;;1.42;;
44646;SDS011;56315;-33.902;151.160;2022-08-23T01:55:44;1.63;;;1.20;;
44646;SDS011;56315;-33.902;151.160;2022-08-23T01:58:12;3.42;;;2.03;;
44646;SDS011;56315;-33.902;151.160;2022-08-23T02:00:41;6.60;;;1.95;;
44646;SDS011;56315;-33.902;151.160;2022-08-23T02:03:09;3.08;;;0.93;;
44646;SDS011;56315;-33.902;151.160;2022-08-23T02:05:37;2.15;;;0.95;;
44646;SDS011;56315;-33.902;151.160;2022-08-23T02:08:07;2.15;;;0.75;;
44646;SDS011;56315;-33.902;151.160;2022-08-23T02:10:53;1.77;;;0.80;;
44646;SDS011;56315;-33.902;151.160;2022-08-23T02:13:20;1.60;;;0.85;;
44646;SDS011;56315;-33.902;151.160;2022-08-23T02:15:48;1.27;;;0.70;;
44646;SDS011;56315;-33.902;151.160;2022-08-23T02:18:18;3.85;;;0.90;;
44646;SDS011;56315;-33.902;151.160;2022-08-23T02:20:47;1.95;;;0.80;;
44646;SDS011;56315;-33.902;151.160;2022-08-23T02:23:16;1.67;;;0.60;;
44646;SDS011;56315;-33.902;151.160;2022-08-23T02:25:44;9.05;;;1.48;;
44646;SDS011;56315;-33.902;151.160;2022-08-23T02:28:12;4.78;;;0.95;;
44646;SDS011;56315;-33.902;151.160;2022-08-23T02:30:39;7.32;;;1.38;;
44646;SDS011;56315;-33.902;151.160;2022-08-23T02:33:09;13.18;;;3.10;;
44646;SDS011;56315;-33.902;151.160;2022-08-23T02:35:37;17.98;;;4.05;;
44646;SDS011;56315;-33.902;151.160;2022-08-23T02:38:07;9.90;;;2.50;;
44646;SDS011;56315;-33.902;151.160;2022-08-23T02:40:37;4.63;;;1.48;;
44646;SDS011;56315;-33.902;151.160;2022-08-23T02:43:05;4.35;;;1.55;;
44646;SDS011;56315;-33.902;151.160;2022-08-23T02:45:33;5.45;;;1.30;;
44646;SDS011;56315;-33.902;151.160;2022-08-23T02:48:01;5.05;;;1.58;;
44646;SDS011;56315;-33.902;151.160;2022-08-23T02:50:30;7.85;;;1.33;;
44646;SDS011;56315;-33.902;151.160;2022-08-23T02:52:57;8.25;;;2.90;;
44646;SDS011;56315;-33.902;151.160;2022-08-23T02:55:25;5.32;;;1.80;;
44646;SDS011;56315;-33.902;151.160;2022-08-23T02:57:53;4.68;;;1.40;;
44646;SDS011;56315;-33.902;151.160;2022-08-23T03:00:21;14.20;;;2.78;;
44646;SDS011;56315;-33.902;151.160;2022-08-23T03:02:48;16.50;;;3.50;;
44646;SDS011;56315;-33.902;151.160;2022-08-23T03:05:16;21.30;;;3.35;;
44646;SDS011;56315;-33.902;151.160;2022-08-23T03:07:43;11.20;;;1.98;;
44646;SDS011;56315;-33.902;151.160;2022-08-23T03:10:11;16.52;;;2.63;;
44646;SDS011;56315;-33.902;151.160;2022-08-23T03:12:40;11.52;;;1.80;;
44646;SDS011;56315;-33.902;151.160;2022-08-23T03:15:08;15.55;;;2.92;;
44646;SDS011;56315;-33.902;151.160;2022-08-23T03:17:36;10.70;;;2.20;;
44646;SDS011;56315;-33.902;151.160;2022-08-23T03:20:03;13.93;;;2.70;;
44646;SDS011;56315;-33.902;151.160;2022-08-23T03:22:31;22.70;;;2.90;;
44646;SDS011;56315;-33.902;151.160;2022-08-23T03:24:59;15.10;;;2.65;;
44646;SDS011;56315;-33.902;151.160;2022-08-23T03:27:26;22.70;;;2.42;;
44646;SDS011;56315;-33.902;151.160;2022-08-23T03:29:56;13.50;;;2.60;;
44646;SDS011;56315;-33.902;151.160;2022-08-23T03:32:23;13.52;;;1.73;;
44646;SDS011;56315;-33.902;151.160;2022-08-23T03:34:51;13.07;;;1.77;;
44646;SDS011;56315;-33.902;151.160;2022-08-23T03:37:19;12.70;;;1.65;;
44646;SDS011;56315;-33.902;151.160;2022-08-23T03:39:46;9.77;;;1.63;;
44646;SDS011;56315;-33.902;151.160;2022-08-23T03:42:14;10.43;;;1.60;;
44646;SDS011;56315;-33.902;151.160;2022-08-23T03:44:41;9.38;;;1.27;;
44646;SDS011;56315;-33.902;151.160;2022-08-23T03:47:09;8.15;;;1.52;;
44646;SDS011;56315;-33.902;151.160;2022-08-23T03:49:37;14.90;;;2.22;;
44646;SDS011;56315;-33.902;151.160;2022-08-23T03:52:04;14.32;;;1.17;;
44646;SDS011;56315;-33.902;151.160;2022-08-23T03:54:33;12.52;;;2.35;;
44646;SDS011;56315;-33.902;151.160;2022-08-23T03:57:02;13.85;;;2.03;;
44646;SDS011;56315;-33.902;151.160;2022-08-23T03:59:33;8.93;;;1.08;;
44646;SDS011;56315;-33.902;151.160;2022-08-23T04:02:02;7.82;;;0.93;;
44646;SDS011;56315;-33.902;151.160;2022-08-23T04:04:30;6.43;;;1.15;;
44646;SDS011;56315;-33.902;151.160;2022-08-23T04:06:58;7.10;;;1.80;;
44646;SDS011;56315;-33.902;151.160;2022-08-23T04:09:25;8.40;;;1.00;;
44646;SDS011;56315;-33.902;151.160;2022-08-23T04:11:53;8.38;;;1.20;;
44646;SDS011;56315;-33.902;151.160;2022-08-23T04:14:22;12.63;;;1.65;;
44646;SDS011;56315;-33.902;151.160;2022-08-23T04:16:51;11.50;;;1.63;;
44646;SDS011;56315;-33.902;151.160;2022-08-23T04:19:18;10.75;;;1.50;;
44646;SDS011;56315;-33.902;151.160;2022-08-23T04:21:48;8.75;;;1.20;;
44646;SDS011;56315;-33.902;151.160;2022-08-23T04:24:17;14.75;;;2.08;;
44646;SDS011;56315;-33.902;151.160;2022-08-23T04:26:45;7.30;;;1.27;;
44646;SDS011;56315;-33.902;151.160;2022-08-23T04:29:13;12.10;;;1.50;;
44646;SDS011;56315;-33.902;151.160;2022-08-23T04:31:42;5.90;;;1.00;;
44646;SDS011;56315;-33.902;151.160;2022-08-23T04:34:10;6.10;;;1.05;;
44646;SDS011;56315;-33.902;151.160;2022-08-23T04:36:39;5.07;;;0.80;;
44646;SDS011;56315;-33.902;151.160;2022-08-23T04:39:08;11.85;;;2.00;;
44646;SDS011;56315;-33.902;151.160;2022-08-23T04:41:35;7.53;;;1.63;;
44646;SDS011;56315;-33.902;151.160;2022-08-23T04:44:21;4.07;;;0.85;;
44646;SDS011;56315;-33.902;151.160;2022-08-23T04:46:48;7.82;;;0.95;;
44646;SDS011;56315;-33.902;151.160;2022-08-23T04:49:16;2.78;;;0.68;;
44646;SDS011;56315;-33.902;151.160;2022-08-23T04:51:44;5.88;;;0.70;;
44646;SDS011;56315;-33.902;151.160;2022-08-23T04:54:12;8.77;;;0.70;;
44646;SDS011;56315;-33.902;151.160;2022-08-23T04:56:39;5.32;;;0.88;;
44646;SDS011;56315;-33.902;151.160;2022-08-23T04:59:07;7.00;;;1.63;;
44646;SDS011;56315;-33.902;151.160;2022-08-23T05:01:38;6.85;;;0.70;;
44646;SDS011;56315;-33.902;151.160;2022-08-23T05:04:07;4.85;;;0.60;;
44646;SDS011;56315;-33.902;151.160;2022-08-23T05:06:35;5.03;;;0.90;;
44646;SDS011;56315;-33.902;151.160;2022-08-23T05:09:03;7.32;;;1.25;;
44646;SDS011;56315;-33.902;151.160;2022-08-23T05:11:30;3.17;;;0.93;;
44646;SDS011;56315;-33.902;151.160;2022-08-23T05:13:58;6.25;;;0.88;;
44646;SDS011;56315;-33.902;151.160;2022-08-23T05:16:25;3.55;;;0.60;;
44646;SDS011;56315;-33.902;151.160;2022-08-23T05:18:52;11.40;;;1.98;;
44646;SDS011;56315;-33.902;151.160;2022-08-23T05:21:20;7.70;;;0.70;;
44646;SDS011;56315;-33.902;151.160;2022-08-23T05:23:49;4.68;;;0.70;;
44646;SDS011;56315;-33.902;151.160;2022-08-23T05:26:17;4.57;;;0.82;;
44646;SDS011;56315;-33.902;151.160;2022-08-23T05:28:46;5.82;;;0.95;;
44646;SDS011;56315;-33.902;151.160;2022-08-23T05:31:16;5.03;;;0.93;;
44646;SDS011;56315;-33.902;151.160;2022-08-23T05:33:46;5.50;;;0.75;;
44646;SDS011;56315;-33.902;151.160;2022-08-23T05:36:15;5.13;;;0.98;;
44646;SDS011;56315;-33.902;151.160;2022-08-23T05:38:44;4.47;;;0.98;;
44646;SDS011;56315;-33.902;151.160;2022-08-23T05:41:12;2.80;;;0.80;;
44646;SDS011;56315;-33.902;151.160;2022-08-23T05:43:41;10.98;;;1.23;;
44646;SDS011;56315;-33.902;151.160;2022-08-23T05:46:10;8.27;;;0.70;;
44646;SDS011;56315;-33.902;151.160;2022-08-23T05:48:42;7.63;;;0.63;;
44646;SDS011;56315;-33.902;151.160;2022-08-23T05:51:13;6.97;;;1.02;;
44646;SDS011;56315;-33.902;151.160;2022-08-23T05:53:46;5.70;;;1.00;;
44646;SDS011;56315;-33.902;151.160;2022-08-23T05:56:26;8.80;;;1.42;;
44646;SDS011;56315;-33.902;151.160;2022-08-23T05:58:57;7.78;;;1.40;;
44646;SDS011;56315;-33.902;151.160;2022-08-23T06:01:26;4.53;;;1.13;;
44646;SDS011;56315;-33.902;151.160;2022-08-23T06:03:54;3.58;;;0.47;;
44646;SDS011;56315;-33.902;151.160;2022-08-23T06:06:24;3.78;;;1.08;;
44646;SDS011;56315;-33.902;151.160;2022-08-23T06:08:52;2.97;;;0.80;;
44646;SDS011;56315;-33.902;151.160;2022-08-23T06:11:20;3.75;;;0.77;;
44646;SDS011;56315;-33.902;151.160;2022-08-23T06:13:51;4.13;;;1.08;;
44646;SDS011;56315;-33.902;151.160;2022-08-23T06:16:23;3.75;;;0.75;;
44646;SDS011;56315;-33.902;151.160;2022-08-23T06:18:53;1.88;;;0.60;;
44646;SDS011;56315;-33.902;151.160;2022-08-23T06:21:22;3.63;;;0.90;;
44646;SDS011;56315;-33.902;151.160;2022-08-23T06:23:51;2.80;;;0.77;;
44646;SDS011;56315;-33.902;151.160;2022-08-23T06:26:20;4.35;;;0.75;;
44646;SDS011;56315;-33.902;151.160;2022-08-23T06:28:51;2.58;;;0.52;;
44646;SDS011;56315;-33.902;151.160;2022-08-23T06:31:22;7.78;;;0.85;;
44646;SDS011;56315;-33.902;151.160;2022-08-23T06:34:09;3.97;;;0.80;;
44646;SDS011;56315;-33.902;151.160;2022-08-23T06:36:38;2.42;;;0.60;;
44646;SDS011;56315;-33.902;151.160;2022-08-23T06:39:07;4.28;;;0.68;;
44646;SDS011;56315;-33.902;151.160;2022-08-23T06:41:36;2.63;;;0.57;;
44646;SDS011;56315;-33.902;151.160;2022-08-23T06:44:04;3.25;;;0.68;;
44646;SDS011;56315;-33.902;151.160;2022-08-23T06:46:33;2.03;;;0.70;;
44646;SDS011;56315;-33.902;151.160;2022-08-23T06:49:01;2.50;;;0.77;;
44646;SDS011;56315;-33.902;151.160;2022-08-23T06:51:30;2.78;;;0.90;;
44646;SDS011;56315;-33.902;151.160;2022-08-23T06:54:14;2.58;;;0.70;;
44646;SDS011;56315;-33.902;151.160;2022-08-23T06:56:44;2.45;;;0.90;;
44646;SDS011;56315;-33.902;151.160;2022-08-23T06:59:13;3.38;;;0.77;;
44646;SDS011;56315;-33.902;151.160;2022-08-23T07:01:48;2.22;;;0.90;;
44646;SDS011;56315;-33.902;151.160;2022-08-23T07:04:21;1.63;;;0.45;;
44646;SDS011;56315;-33.902;151.160;2022-08-23T07:06:50;2.50;;;0.60;;
44646;SDS011;56315;-33.902;151.160;2022-08-23T07:09:18;3.20;;;0.60;;
44646;SDS011;56315;-33.902;151.160;2022-08-23T07:11:45;2.40;;;0.63;;
44646;SDS011;56315;-33.902;151.160;2022-08-23T07:14:13;3.38;;;0.60;;
44646;SDS011;56315;-33.902;151.160;2022-08-23T07:16:44;2.10;;;0.77;;
44646;SDS011;56315;-33.902;151.160;2022-08-23T07:19:13;1.10;;;0.52;;
44646;SDS011;56315;-33.902;151.160;2022-08-23T07:21:42;2.35;;;0.60;;
44646;SDS011;56315;-33.902;151.160;2022-08-23T07:24:10;2.35;;;0.55;;
44646;SDS011;56315;-33.902;151.160;2022-08-23T07:26:38;2.13;;;0.50;;
44646;SDS011;56315;-33.902;151.160;2022-08-23T07:29:07;2.60;;;0.60;;
44646;SDS011;56315;-33.902;151.160;2022-08-23T07:31:40;1.20;;;0.98;;
44646;SDS011;56315;-33.902;151.160;2022-08-23T07:34:12;2.03;;;0.70;;
44646;SDS011;56315;-33.902;151.160;2022-08-23T07:36:40;2.97;;;1.05;;
44646;SDS011;56315;-33.902;151.160;2022-08-23T07:39:09;2.10;;;0.73;;
44646;SDS011;56315;-33.902;151.160;2022-08-23T07:41:38;3.03;;;0.50;;
44646;SDS011;56315;-33.902;151.160;2022-08-23T07:44:06;2.25;;;0.60;;
44646;SDS011;56315;-33.902;151.160;2022-08-23T07:46:36;3.72;;;0.75;;
44646;SDS011;56315;-33.902;151.160;2022-08-23T07:49:05;3.90;;;0.70;;
44646;SDS011;56315;-33.902;151.160;2022-08-23T07:51:33;1.45;;;0.60;;
44646;SDS011;56315;-33.902;151.160;2022-08-23T07:54:02;1.85;;;0.60;;
44646;SDS011;56315;-33.902;151.160;2022-08-23T07:56:33;5.47;;;1.80;;
44646;SDS011;56315;-33.902;151.160;2022-08-23T07:59:01;2.80;;;0.73;;
44646;SDS011;56315;-33.902;151.160;2022-08-23T08:01:30;1.88;;;0.47;;
44646;SDS011;56315;-33.902;151.160;2022-08-23T08:03:58;3.13;;;0.80;;
44646;SDS011;56315;-33.902;151.160;2022-08-23T08:08:56;1.80;;;0.52;;
44646;SDS011;56315;-33.902;151.160;2022-08-23T08:11:25;1.13;;;0.52;;
44646;SDS011;56315;-33.902;151.160;2022-08-23T08:13:54;1.30;;;0.70;;
44646;SDS011;56315;-33.902;151.160;2022-08-23T08:16:23;3.20;;;0.75;;
44646;SDS011;56315;-33.902;151.160;2022-08-23T08:18:54;1.58;;;0.50;;
44646;SDS011;56315;-33.902;151.160;2022-08-23T08:21:24;4.93;;;1.15;;
44646;SDS011;56315;-33.902;151.160;2022-08-23T08:23:52;2.13;;;0.80;;
44646;SDS011;56315;-33.902;151.160;2022-08-23T08:26:20;1.38;;;0.90;;
44646;SDS011;56315;-33.902;151.160;2022-08-23T08:28:49;1.67;;;0.88;;
44646;SDS011;56315;-33.902;151.160;2022-08-23T08:31:21;1.30;;;1.15;;
44646;SDS011;56315;-33.902;151.160;2022-08-23T08:33:50;2.00;;;1.27;;
44646;SDS011;56315;-33.902;151.160;2022-08-23T08:36:32;0.80;;;0.80;;
44646;SDS011;56315;-33.902;151.160;2022-08-23T08:39:06;1.10;;;1.00;;
44646;SDS011;56315;-33.902;151.160;2022-08-23T08:41:44;1.65;;;1.20;;
44646;SDS011;56315;-33.902;151.160;2022-08-23T08:47:20;2.20;;;1.45;;
44646;SDS011;56315;-33.902;151.160;2022-08-23T08:49:59;1.98;;;1.63;;
44646;SDS011;56315;-33.902;151.160;2022-08-23T08:52:38;2.15;;;1.25;;
44646;SDS011;56315;-33.902;151.160;2022-08-23T08:55:21;1.63;;;1.00;;
44646;SDS011;56315;-33.902;151.160;2022-08-23T08:57:51;0.98;;;0.80;;
44646;SDS011;56315;-33.902;151.160;2022-08-23T09:00:21;2.30;;;1.23;;
44646;SDS011;56315;-33.902;151.160;2022-08-23T09:02:53;1.55;;;0.90;;
44646;SDS011;56315;-33.902;151.160;2022-08-23T09:05:24;4.80;;;1.80;;
44646;SDS011;56315;-33.902;151.160;2022-08-23T09:17:25;1.75;;;1.00;;
44646;SDS011;56315;-33.902;151.160;2022-08-23T09:22:35;1.73;;;1.10;;
44646;SDS011;56315;-33.902;151.160;2022-08-23T09:25:07;2.85;;;0.70;;
44646;SDS011;56315;-33.902;151.160;2022-08-23T09:27:37;2.03;;;1.00;;
44646;SDS011;56315;-33.902;151.160;2022-08-23T09:30:06;2.85;;;1.00;;
44646;SDS011;56315;-33.902;151.160;2022-08-23T09:32:35;1.33;;;0.90;;
44646;SDS011;56315;-33.902;151.160;2022-08-23T09:35:06;3.65;;;1.92;;
44646;SDS011;56315;-33.902;151.160;2022-08-23T09:37:50;2.30;;;1.00;;
44646;SDS011;56315;-33.902;151.160;2022-08-23T09:40:32;2.92;;;0.85;;
44646;SDS011;56315;-33.902;151.160;2022-08-23T09:43:15;11.30;;;2.20;;
44646;SDS011;56315;-33.902;151.160;2022-08-23T09:49:06;3.83;;;1.15;;
44646;SDS011;56315;-33.902;151.160;2022-08-23T09:53:34;2.75;;;0.90;;
44646;SDS011;56315;-33.902;151.160;2022-08-23T09:56:12;2.53;;;1.10;;
44646;SDS011;56315;-33.902;151.160;2022-08-23T09:58:49;3.38;;;0.95;;
44646;SDS011;56315;-33.902;151.160;2022-08-23T10:01:25;3.72;;;1.60;;
44646;SDS011;56315;-33.902;151.160;2022-08-23T10:04:13;2.67;;;1.60;;
44646;SDS011;56315;-33.902;151.160;2022-08-23T10:10:42;3.22;;;1.95;;
44646;SDS011;56315;-33.902;151.160;2022-08-23T10:12:58;2.10;;;0.95;;
44646;SDS011;56315;-33.902;151.160;2022-08-23T10:21:26;1.90;;;0.80;;
44646;SDS011;56315;-33.902;151.160;2022-08-23T10:24:25;3.25;;;2.10;;
44646;SDS011;56315;-33.902;151.160;2022-08-23T10:30:35;2.05;;;1.30;;
44646;SDS011;56315;-33.902;151.160;2022-08-23T10:33:23;1.35;;;0.90;;
44646;SDS011;56315;-33.902;151.160;2022-08-23T10:39:02;1.08;;;0.73;;
44646;SDS011;56315;-33.902;151.160;2022-08-23T10:41:39;2.80;;;1.05;;
44646;SDS011;56315;-33.902;151.160;2022-08-23T10:47:22;1.77;;;0.80;;
44646;SDS011;56315;-33.902;151.160;2022-08-23T10:49:51;1.85;;;0.90;;
44646;SDS011;56315;-33.902;151.160;2022-08-23T10:53:07;2.70;;;1.25;;
44646;SDS011;56315;-33.902;151.160;2022-08-23T10:55:32;3.42;;;1.30;;
44646;SDS011;56315;-33.902;151.160;2022-08-23T11:01:22;2.05;;;0.85;;
44646;SDS011;56315;-33.902;151.160;2022-08-23T11:04:15;1.83;;;0.90;;
44646;SDS011;56315;-33.902;151.160;2022-08-23T11:06:56;2.45;;;1.00;;
44646;SDS011;56315;-33.902;151.160;2022-08-23T11:26:07;2.55;;;0.52;;
44646;SDS011;56315;-33.902;151.160;2022-08-23T11:28:41;2.58;;;0.73;;
44646;SDS011;56315;-33.902;151.160;2022-08-23T11:36:24;1.70;;;0.80;;
44646;SDS011;56315;-33.902;151.160;2022-08-23T11:41:30;2.78;;;0.75;;
44646;SDS011;56315;-33.902;151.160;2022-08-23T11:44:39;2.38;;;0.90;;
44646;SDS011;56315;-33.902;151.160;2022-08-23T11:47:14;1.38;;;0.80;;
44646;SDS011;56315;-33.902;151.160;2022-08-23T11:50:04;2.53;;;1.00;;
44646;SDS011;56315;-33.902;151.160;2022-08-23T11:53:04;3.78;;;1.05;;
44646;SDS011;56315;-33.902;151.160;2022-08-23T11:58:41;1.65;;;0.80;;
44646;SDS011;56315;-33.902;151.160;2022-08-23T12:01:32;2.78;;;1.23;;
44646;SDS011;56315;-33.902;151.160;2022-08-23T12:06:44;3.63;;;1.02;;
44646;SDS011;56315;-33.902;151.160;2022-08-23T12:09:48;3.38;;;1.92;;
44646;SDS011;56315;-33.902;151.160;2022-08-23T12:14:49;5.45;;;1.30;;
44646;SDS011;56315;-33.902;151.160;2022-08-23T12:22:51;3.95;;;1.48;;
44646;SDS011;56315;-33.902;151.160;2022-08-23T12:25:22;4.30;;;2.10;;
44646;SDS011;56315;-33.902;151.160;2022-08-23T12:30:56;5.88;;;1.67;;
44646;SDS011;56315;-33.902;151.160;2022-08-23T12:33:50;6.07;;;1.05;;
44646;SDS011;56315;-33.902;151.160;2022-08-23T12:36:26;3.25;;;0.95;;
44646;SDS011;56315;-33.902;151.160;2022-08-23T12:39:08;6.88;;;1.90;;
44646;SDS011;56315;-33.902;151.160;2022-08-23T12:42:06;5.57;;;1.25;;
44646;SDS011;56315;-33.902;151.160;2022-08-23T12:44:41;5.25;;;0.80;;
44646;SDS011;56315;-33.902;151.160;2022-08-23T12:47:13;9.82;;;1.23;;
44646;SDS011;56315;-33.902;151.160;2022-08-23T12:49:53;6.20;;;1.10;;
44646;SDS011;56315;-33.902;151.160;2022-08-23T12:52:24;6.55;;;1.13;;
44646;SDS011;56315;-33.902;151.160;2022-08-23T12:54:56;3.65;;;1.15;;
44646;SDS011;56315;-33.902;151.160;2022-08-23T12:57:29;3.42;;;0.80;;
44646;SDS011;56315;-33.902;151.160;2022-08-23T13:00:14;4.15;;;1.40;;
44646;SDS011;56315;-33.902;151.160;2022-08-23T13:02:47;3.47;;;0.93;;
44646;SDS011;56315;-33.902;151.160;2022-08-23T13:05:42;2.45;;;0.60;;
44646;SDS011;56315;-33.902;151.160;2022-08-23T13:08:14;5.45;;;1.20;;
44646;SDS011;56315;-33.902;151.160;2022-08-23T13:10:44;6.40;;;1.00;;
44646;SDS011;56315;-33.902;151.160;2022-08-23T13:13:15;1.85;;;0.63;;
44646;SDS011;56315;-33.902;151.160;2022-08-23T13:15:48;5.03;;;0.95;;
44646;SDS011;56315;-33.902;151.160;2022-08-23T13:23:49;1.85;;;0.80;;
44646;SDS011;56315;-33.902;151.160;2022-08-23T13:26:41;3.17;;;0.95;;
44646;SDS011;56315;-33.902;151.160;2022-08-23T13:29:10;3.45;;;1.00;;
44646;SDS011;56315;-33.902;151.160;2022-08-23T13:31:53;5.78;;;1.10;;
44646;SDS011;56315;-33.902;151.160;2022-08-23T13:34:31;5.68;;;1.00;;
44646;SDS011;56315;-33.902;151.160;2022-08-23T13:37:01;3.15;;;0.82;;
44646;SDS011;56315;-33.902;151.160;2022-08-23T13:39:31;4.85;;;1.15;;
44646;SDS011;56315;-33.902;151.160;2022-08-23T13:41:59;4.68;;;0.90;;
44646;SDS011;56315;-33.902;151.160;2022-08-23T13:44:28;3.88;;;1.38;;
44646;SDS011;56315;-33.902;151.160;2022-08-23T13:46:57;3.05;;;1.27;;
44646;SDS011;56315;-33.902;151.160;2022-08-23T13:49:26;3.35;;;0.95;;
44646;SDS011;56315;-33.902;151.160;2022-08-23T13:54:31;2.92;;;0.75;;
44646;SDS011;56315;-33.902;151.160;2022-08-23T13:57:00;4.38;;;0.73;;
44646;SDS011;56315;-33.902;151.160;2022-08-23T13:59:34;2.38;;;0.90;;
44646;SDS011;56315;-33.902;151.160;2022-08-23T14:02:10;4.82;;;0.90;;
44646;SDS011;56315;-33.902;151.160;2022-08-23T14:04:40;2.42;;;0.98;;
44646;SDS011;56315;-33.902;151.160;2022-08-23T14:07:08;2.75;;;0.82;;
44646;SDS011;56315;-33.902;151.160;2022-08-23T14:09:37;3.00;;;0.85;;
44646;SDS011;56315;-33.902;151.160;2022-08-23T14:12:06;5.32;;;0.98;;
44646;SDS011;56315;-33.902;151.160;2022-08-23T14:14:42;1.70;;;0.80;;
44646;SDS011;56315;-33.902;151.160;2022-08-23T14:17:10;3.13;;;0.98;;
44646;SDS011;56315;-33.902;151.160;2022-08-23T14:19:38;3.42;;;1.35;;
44646;SDS011;56315;-33.902;151.160;2022-08-23T14:22:07;1.58;;;0.80;;
44646;SDS011;56315;-33.902;151.160;2022-08-23T14:24:35;2.60;;;0.80;;
44646;SDS011;56315;-33.902;151.160;2022-08-23T14:27:03;4.28;;;0.95;;
44646;SDS011;56315;-33.902;151.160;2022-08-23T14:29:30;4.32;;;0.90;;
44646;SDS011;56315;-33.902;151.160;2022-08-23T14:31:57;4.22;;;1.17;;
44646;SDS011;56315;-33.902;151.160;2022-08-23T14:34:25;2.15;;;0.95;;
44646;SDS011;56315;-33.902;151.160;2022-08-23T14:36:54;1.83;;;0.88;;
44646;SDS011;56315;-33.902;151.160;2022-08-23T14:39:22;2.78;;;0.60;;
44646;SDS011;56315;-33.902;151.160;2022-08-23T14:41:49;6.38;;;1.77;;
44646;SDS011;56315;-33.902;151.160;2022-08-23T14:44:17;2.90;;;1.13;;
44646;SDS011;56315;-33.902;151.160;2022-08-23T14:46:44;3.80;;;1.08;;
44646;SDS011;56315;-33.902;151.160;2022-08-23T14:49:12;2.03;;;1.08;;
44646;SDS011;56315;-33.902;151.160;2022-08-23T14:51:43;2.80;;;0.80;;
44646;SDS011;56315;-33.902;151.160;2022-08-23T14:54:16;4.40;;;1.10;;
44646;SDS011;56315;-33.902;151.160;2022-08-23T14:56:45;1.98;;;0.90;;
44646;SDS011;56315;-33.902;151.160;2022-08-23T14:59:13;1.17;;;0.90;;
44646;SDS011;56315;-33.902;151.160;2022-08-23T15:01:41;3.00;;;0.93;;
44646;SDS011;56315;-33.902;151.160;2022-08-23T15:04:08;2.47;;;0.70;;
44646;SDS011;56315;-33.902;151.160;2022-08-23T15:06:36;3.25;;;0.75;;
44646;SDS011;56315;-33.902;151.160;2022-08-23T15:09:05;8.23;;;1.38;;
44646;SDS011;56315;-33.902;151.160;2022-08-23T15:11:32;2.65;;;0.90;;
44646;SDS011;56315;-33.902;151.160;2022-08-23T15:13:59;2.72;;;1.00;;
44646;SDS011;56315;-33.902;151.160;2022-08-23T15:16:27;3.67;;;0.93;;
44646;SDS011;56315;-33.902;151.160;2022-08-23T15:18:55;2.75;;;0.60;;
44646;SDS011;56315;-33.902;151.160;2022-08-23T15:21:22;3.03;;;0.95;;
44646;SDS011;56315;-33.902;151.160;2022-08-23T15:23:50;3.35;;;0.82;;
44646;SDS011;56315;-33.902;151.160;2022-08-23T15:26:22;3.42;;;0.50;;
44646;SDS011;56315;-33.902;151.160;2022-08-23T15:28:53;8.20;;;0.75;;
44646;SDS011;56315;-33.902;151.160;2022-08-23T15:31:20;1.92;;;0.57;;
44646;SDS011;56315;-33.902;151.160;2022-08-23T15:33:48;3.05;;;0.88;;
44646;SDS011;56315;-33.902;151.160;2022-08-23T15:36:15;3.70;;;0.70;;
44646;SDS011;56315;-33.902;151.160;2022-08-23T15:38:44;2.13;;;0.50;;
44646;SDS011;56315;-33.902;151.160;2022-08-23T15:41:13;2.53;;;0.60;;
44646;SDS011;56315;-33.902;151.160;2022-08-23T15:43:42;3.15;;;0.52;;
44646;SDS011;56315;-33.902;151.160;2022-08-23T15:46:11;7.05;;;0.88;;
44646;SDS011;56315;-33.902;151.160;2022-08-23T15:48:52;2.28;;;0.60;;
44646;SDS011;56315;-33.902;151.160;2022-08-23T15:51:23;2.55;;;0.60;;
44646;SDS011;56315;-33.902;151.160;2022-08-23T15:53:50;2.25;;;0.50;;
44646;SDS011;56315;-33.902;151.160;2022-08-23T15:56:20;3.00;;;0.68;;
44646;SDS011;56315;-33.902;151.160;2022-08-23T15:58:49;1.55;;;0.50;;
44646;SDS011;56315;-33.902;151.160;2022-08-23T16:01:19;4.15;;;0.63;;
44646;SDS011;56315;-33.902;151.160;2022-08-23T16:03:47;3.25;;;0.70;;
44646;SDS011;56315;-33.902;151.160;2022-08-23T16:06:15;4.70;;;0.80;;
44646;SDS011;56315;-33.902;151.160;2022-08-23T16:08:44;2.38;;;0.60;;
44646;SDS011;56315;-33.902;151.160;2022-08-23T16:11:14;2.53;;;0.50;;
44646;SDS011;56315;-33.902;151.160;2022-08-23T16:13:42;4.10;;;0.93;;
44646;SDS011;56315;-33.902;151.160;2022-08-23T16:16:15;3.05;;;1.00;;
44646;SDS011;56315;-33.902;151.160;2022-08-23T16:18:48;3.33;;;0.82;;